Time;durP1;ratioP1;P1;durP2;ratioP2;P2;SDS_P1;SDS_P2;PMS_P1;PMS_P2;Temp;Humidity;BMP_temperature;BMP_pressure;BME280_temperature;BME280_humidity;BME280_pressure;Samples;Min_cycle;Max_cycle;Signal;HPM_P1;HPM_P2
2021/07/25 00:01:46;;;;;;;;;2.00;2.00;;;;;;;;5017421;27;45786;-79
2021/07/25 00:04:12;;;;;;;;;3.67;3.67;;;;;;;;5016600;28;45519;-79
2021/07/25 00:06:38;;;;;;;;;3.00;3.00;;;;;;;;5014732;27;45578;-79
2021/07/25 00:09:03;;;;;;;;;3.00;2.00;;;;;;;;5016864;27;45745;-78
2021/07/25 00:11:28;;;;;;;;;1.67;1.00;;;;;;;;5016823;27;45489;-79
2021/07/25 00:13:56;;;;;;;;;2.33;2.33;;;;;;;;5016569;27;45290;-79
2021/07/25 00:16:21;;;;;;;;;2.50;2.00;;;;;;;;5012838;28;45569;-80
2021/07/25 00:18:46;;;;;;;;;3.00;2.00;;;;;;;;5014853;27;45416;-79
2021/07/25 00:21:12;;;;;;;;;3.00;3.00;;;;;;;;5015436;27;46118;-79
2021/07/25 00:23:38;;;;;;;;;3.00;1.25;;;;;;;;5017540;27;45489;-78
2021/07/25 00:26:06;;;;;;;;;5.25;2.00;;;;;;;;5021844;27;45564;-79
2021/07/25 00:28:34;;;;;;;;;3.00;1.75;;;;;;;;5028291;27;45554;-79
2021/07/25 00:31:03;;;;;;;;;3.50;2.00;;;;;;;;5031096;27;45850;-80
2021/07/25 00:33:32;;;;;;;;;5.00;2.00;;;;;;;;5028481;27;46877;-78
2021/07/25 00:35:59;;;;;;;;;2.00;2.00;;;;;;;;5031385;27;46481;-79
2021/07/25 00:38:24;;;;;;;;;2.50;2.50;;;;;;;;5030732;27;45445;-79
2021/07/25 00:40:50;;;;;;;;;2.00;2.00;;;;;;;;5043207;27;45532;-79
2021/07/25 00:43:29;;;;;;;;;2.00;2.00;;;;;;;;5028298;27;46380;-79
2021/07/25 00:45:57;;;;;;;;;3.00;2.00;;;;;;;;5028262;27;45547;-79
2021/07/25 00:48:24;;;;;;;;;3.00;2.00;;;;;;;;5028583;27;45317;-79
2021/07/25 00:50:49;;;;;;;;;3.00;1.75;;;;;;;;5030759;27;45684;-79
2021/07/25 00:53:15;;;;;;;;;1.25;1.25;;;;;;;;5023242;27;45421;-78
2021/07/25 00:55:40;;;;;;;;;2.75;2.00;;;;;;;;5028476;27;45270;-79
2021/07/25 00:58:06;;;;;;;;;1.75;1.75;;;;;;;;5031351;27;45443;-80
2021/07/25 01:00:31;;;;;;;;;3.00;2.00;;;;;;;;5030515;27;46172;-79
2021/07/25 01:03:01;;;;;;;;;2.00;2.00;;;;;;;;5034269;27;45478;-78
2021/07/25 01:05:45;;;;;;;;;4.50;3.00;;;;;;;;5029023;27;45401;-79
2021/07/25 01:08:16;;;;;;;;;2.00;2.00;;;;;;;;5029663;27;45805;-79
2021/07/25 01:10:41;;;;;;;;;2.00;2.00;;;;;;;;5031668;27;45574;-79
2021/07/25 01:13:17;;;;;;;;;0.75;0.75;;;;;;;;5030946;27;45616;-79
2021/07/25 01:15:42;;;;;;;;;1.00;1.00;;;;;;;;5046396;27;45622;-79
2021/07/25 01:18:07;;;;;;;;;2.25;2.00;;;;;;;;5032072;27;45392;-79
2021/07/25 01:20:33;;;;;;;;;1.00;1.00;;;;;;;;5034317;27;45436;-79
2021/07/25 01:22:59;;;;;;;;;1.00;1.00;;;;;;;;5029506;27;46019;-79
2021/07/25 01:25:25;;;;;;;;;2.00;1.00;;;;;;;;5032070;27;45499;-80
2021/07/25 01:27:57;;;;;;;;;3.00;2.00;;;;;;;;5030892;27;45430;-79
2021/07/25 01:30:24;;;;;;;;;3.50;2.00;;;;;;;;5035989;27;45707;-79
2021/07/25 01:32:51;;;;;;;;;3.00;1.25;;;;;;;;5033383;27;45946;-78
2021/07/25 01:35:16;;;;;;;;;2.25;2.00;;;;;;;;5032851;27;45440;-78
2021/07/25 01:37:42;;;;;;;;;1.67;1.67;;;;;;;;5031675;27;45287;-79
2021/07/25 01:40:11;;;;;;;;;2.00;2.00;;;;;;;;5031504;27;45387;-79
2021/07/25 01:42:36;;;;;;;;;2.75;2.00;;;;;;;;5028299;27;45829;-79
2021/07/25 01:45:03;;;;;;;;;4.00;2.25;;;;;;;;5028595;27;45838;-79
2021/07/25 01:47:29;;;;;;;;;4.25;2.25;;;;;;;;5034038;27;45464;-79
2021/07/25 01:49:54;;;;;;;;;3.00;2.00;;;;;;;;5044362;27;46217;-79
2021/07/25 01:52:19;;;;;;;;;2.33;2.33;;;;;;;;5030880;27;45852;-78
2021/07/25 01:54:45;;;;;;;;;1.33;1.33;;;;;;;;5041015;27;45981;-79
2021/07/25 01:57:10;;;;;;;;;2.00;2.00;;;;;;;;5031275;27;45444;-80
2021/07/25 01:59:35;;;;;;;;;3.33;2.00;;;;;;;;5038368;27;46155;-79
2021/07/25 02:02:00;;;;;;;;;4.00;2.00;;;;;;;;5021652;27;45785;-79
2021/07/25 02:04:25;;;;;;;;;5.00;2.00;;;;;;;;5001558;27;45356;-79
2021/07/25 02:06:51;;;;;;;;;4.00;1.00;;;;;;;;5034824;28;45400;-80
2021/07/25 02:09:16;;;;;;;;;2.33;2.33;;;;;;;;5029809;27;46112;-79
2021/07/25 02:11:41;;;;;;;;;4.67;2.00;;;;;;;;5036792;27;45386;-79
2021/07/25 02:14:08;;;;;;;;;3.00;3.00;;;;;;;;5030730;27;45443;-80
2021/07/25 02:16:33;;;;;;;;;2.75;2.00;;;;;;;;5031701;28;45426;-79
2021/07/25 02:18:59;;;;;;;;;2.33;2.33;;;;;;;;5029592;28;45727;-79
2021/07/25 02:21:24;;;;;;;;;5.00;3.00;;;;;;;;5031600;28;45459;-79
2021/07/25 02:23:49;;;;;;;;;3.00;3.00;;;;;;;;5039640;28;45679;-80
2021/07/25 02:26:14;;;;;;;;;3.67;3.00;;;;;;;;5035767;27;45484;-79
2021/07/25 02:28:39;;;;;;;;;3.67;2.33;;;;;;;;5039130;27;45498;-79
2021/07/25 02:31:05;;;;;;;;;3.33;3.00;;;;;;;;5033772;28;45389;-79
2021/07/25 02:33:30;;;;;;;;;2.00;2.00;;;;;;;;5026037;28;45550;-79
2021/07/25 02:35:56;;;;;;;;;4.67;3.00;;;;;;;;5033411;27;45378;-79
2021/07/25 02:38:21;;;;;;;;;4.25;2.75;;;;;;;;5016902;27;47112;-78
2021/07/25 02:40:47;;;;;;;;;2.75;2.75;;;;;;;;5033295;27;45432;-80
2021/07/25 02:43:12;;;;;;;;;5.67;4.00;;;;;;;;5033683;28;45317;-79
2021/07/25 02:45:37;;;;;;;;;4.00;4.00;;;;;;;;5031890;27;45519;-79
2021/07/25 02:48:02;;;;;;;;;4.33;4.00;;;;;;;;5031356;27;46333;-79
2021/07/25 02:50:27;;;;;;;;;6.50;2.25;;;;;;;;5040821;28;45426;-79
2021/07/25 02:52:53;;;;;;;;;3.00;3.00;;;;;;;;5022865;27;45502;-79
2021/07/25 02:55:18;;;;;;;;;5.00;3.00;;;;;;;;5033958;28;45570;-79
2021/07/25 02:57:43;;;;;;;;;2.33;2.33;;;;;;;;5032894;27;46432;-79
2021/07/25 03:00:09;;;;;;;;;3.75;3.50;;;;;;;;5011827;27;46733;-79
2021/07/25 03:02:36;;;;;;;;;2.75;2.75;;;;;;;;5030707;27;45357;-79
2021/07/25 03:05:02;;;;;;;;;4.75;3.00;;;;;;;;5032228;27;45461;-79
2021/07/25 03:07:27;;;;;;;;;2.50;2.50;;;;;;;;5033677;27;45307;-80
2021/07/25 03:09:52;;;;;;;;;2.33;2.33;;;;;;;;5033087;28;45842;-79
2021/07/25 03:12:17;;;;;;;;;4.50;4.00;;;;;;;;5030085;27;50369;-79
2021/07/25 03:14:43;;;;;;;;;3.67;3.33;;;;;;;;5018156;27;45620;-79
2021/07/25 03:17:08;;;;;;;;;2.50;2.50;;;;;;;;5033060;27;45713;-79
2021/07/25 03:19:33;;;;;;;;;3.67;2.00;;;;;;;;5032087;27;45319;-80
2021/07/25 03:21:58;;;;;;;;;4.00;1.67;;;;;;;;5032715;28;45640;-79
2021/07/25 03:24:24;;;;;;;;;3.33;3.00;;;;;;;;5029367;28;45803;-80
2021/07/25 03:26:49;;;;;;;;;3.00;2.00;;;;;;;;5034164;27;45565;-79
2021/07/25 03:29:14;;;;;;;;;2.00;2.00;;;;;;;;5034384;27;45447;-80
2021/07/25 03:31:39;;;;;;;;;5.25;2.75;;;;;;;;5032668;27;46686;-80
2021/07/25 03:34:05;;;;;;;;;2.00;2.00;;;;;;;;5016400;27;45574;-79
2021/07/25 03:36:30;;;;;;;;;2.67;2.67;;;;;;;;5030360;27;45393;-79
2021/07/25 03:38:56;;;;;;;;;1.00;1.00;;;;;;;;5030402;27;45493;-78
2021/07/25 03:41:21;;;;;;;;;1.00;1.00;;;;;;;;5029907;28;45372;-80
2021/07/25 03:43:47;;;;;;;;;2.33;1.00;;;;;;;;5035743;28;45563;-79
2021/07/25 03:46:12;;;;;;;;;4.00;1.00;;;;;;;;5032618;28;45411;-79
2021/07/25 03:48:37;;;;;;;;;1.00;1.00;;;;;;;;5031232;27;45558;-79
2021/07/25 03:51:02;;;;;;;;;1.00;1.00;;;;;;;;5012960;27;45457;-80
2021/07/25 03:53:28;;;;;;;;;2.00;2.00;;;;;;;;5036513;27;45559;-79
2021/07/25 03:55:53;;;;;;;;;1.50;1.50;;;;;;;;5032395;27;46563;-79
2021/07/25 03:58:19;;;;;;;;;1.00;1.00;;;;;;;;5033050;28;45560;-79
2021/07/25 04:00:44;;;;;;;;;2.00;2.00;;;;;;;;5031068;27;45462;-80
2021/07/25 04:03:09;;;;;;;;;2.33;2.33;;;;;;;;5016655;28;45564;-79
2021/07/25 04:05:34;;;;;;;;;1.33;1.00;;;;;;;;5016978;27;47929;-80
2021/07/25 04:08:05;;;;;;;;;2.00;2.00;;;;;;;;5031873;27;45310;-79
2021/07/25 04:10:30;;;;;;;;;1.25;1.25;;;;;;;;5032447;27;45412;-79
2021/07/25 04:12:56;;;;;;;;;1.00;1.00;;;;;;;;5018935;27;45497;-79
2021/07/25 04:15:21;;;;;;;;;1.00;1.00;;;;;;;;5028576;27;46310;-80
2021/07/25 04:17:46;;;;;;;;;1.33;1.00;;;;;;;;5034237;27;45310;-78
2021/07/25 04:20:11;;;;;;;;;3.00;1.67;;;;;;;;5032876;27;45319;-79
2021/07/25 04:22:37;;;;;;;;;2.00;2.00;;;;;;;;5030097;28;45364;-79
2021/07/25 04:25:03;;;;;;;;;4.25;2.50;;;;;;;;5031895;28;46253;-79
2021/07/25 04:27:29;;;;;;;;;2.00;2.00;;;;;;;;5029233;27;46042;-79
2021/07/25 04:29:55;;;;;;;;;2.00;2.00;;;;;;;;5032612;27;45645;-80
2021/07/25 04:32:20;;;;;;;;;1.25;1.25;;;;;;;;5029913;27;45477;-79
2021/07/25 04:34:46;;;;;;;;;1.00;1.00;;;;;;;;5028215;27;45419;-79
2021/07/25 04:37:22;;;;;;;;;2.00;2.00;;;;;;;;5032124;28;45414;-79
2021/07/25 04:39:47;;;;;;;;;2.25;2.00;;;;;;;;5026161;27;45524;-79
2021/07/25 04:42:14;;;;;;;;;3.00;2.00;;;;;;;;5032860;27;45458;-79
2021/07/25 04:44:42;;;;;;;;;6.00;2.50;;;;;;;;5031644;27;45761;-79
2021/07/25 04:47:09;;;;;;;;;1.75;1.00;;;;;;;;5032236;27;45469;-78
2021/07/25 04:49:38;;;;;;;;;2.75;2.00;;;;;;;;5031122;27;45399;-79
2021/07/25 04:52:06;;;;;;;;;4.50;4.00;;;;;;;;5031509;28;45350;-80
2021/07/25 04:54:34;;;;;;;;;4.00;2.75;;;;;;;;5031285;27;45597;-79
2021/07/25 04:57:01;;;;;;;;;3.00;3.00;;;;;;;;5031032;28;45474;-80
2021/07/25 04:59:28;;;;;;;;;5.25;3.50;;;;;;;;5015590;27;45366;-79
2021/07/25 05:01:58;;;;;;;;;5.00;4.00;;;;;;;;5031703;27;45539;-80
2021/07/25 05:04:25;;;;;;;;;6.50;6.00;;;;;;;;5028129;28;46382;-80
2021/07/25 05:06:51;;;;;;;;;7.50;5.00;;;;;;;;5020513;28;45491;-79
2021/07/25 05:09:16;;;;;;;;;4.75;3.00;;;;;;;;5027616;27;45282;-79
2021/07/25 05:11:44;;;;;;;;;4.50;3.25;;;;;;;;5016624;27;45516;-79
2021/07/25 05:14:30;;;;;;;;;4.00;4.00;;;;;;;;5047904;27;46610;-79
2021/07/25 05:17:03;;;;;;;;;4.50;4.50;;;;;;;;5031394;27;45560;-80
2021/07/25 05:19:47;;;;;;;;;6.75;5.25;;;;;;;;5031214;27;45375;-79
2021/07/25 05:22:31;;;;;;;;;5.75;3.00;;;;;;;;5030998;28;45555;-78
2021/07/25 05:24:59;;;;;;;;;5.00;5.00;;;;;;;;5006530;28;46224;-79
2021/07/25 05:27:25;;;;;;;;;6.00;4.00;;;;;;;;5027912;27;47767;-80
2021/07/25 05:29:51;;;;;;;;;5.00;5.00;;;;;;;;5032290;27;45335;-79
2021/07/25 05:32:17;;;;;;;;;6.00;5.00;;;;;;;;5031671;27;45415;-79
2021/07/25 05:34:42;;;;;;;;;6.50;5.75;;;;;;;;5043690;27;46898;-80
2021/07/25 05:37:07;;;;;;;;;8.00;4.00;;;;;;;;5075859;27;45458;-79
2021/07/25 05:39:32;;;;;;;;;8.00;4.33;;;;;;;;5029279;27;45417;-80
2021/07/25 05:41:58;;;;;;;;;8.00;5.00;;;;;;;;5029990;27;45298;-79
2021/07/25 05:44:23;;;;;;;;;8.25;5.25;;;;;;;;5045721;27;48395;-79
2021/07/25 05:46:48;;;;;;;;;4.00;4.00;;;;;;;;5025543;27;48610;-79
2021/07/25 05:49:13;;;;;;;;;8.67;4.33;;;;;;;;5034010;28;45389;-79
2021/07/25 05:51:39;;;;;;;;;5.75;5.25;;;;;;;;5033382;27;45665;-80
2021/07/25 05:54:04;;;;;;;;;5.75;4.00;;;;;;;;5033112;27;46030;-79
2021/07/25 05:56:30;;;;;;;;;8.50;7.00;;;;;;;;5035092;27;45394;-79
2021/07/25 05:58:55;;;;;;;;;11.50;5.25;;;;;;;;5008278;27;45300;-80
2021/07/25 06:01:20;;;;;;;;;8.00;5.00;;;;;;;;5029671;28;45266;-80
2021/07/25 06:03:46;;;;;;;;;6.33;5.33;;;;;;;;5036971;28;45437;-79
2021/07/25 06:06:11;;;;;;;;;6.25;4.75;;;;;;;;5030099;27;45306;-79
2021/07/25 06:08:36;;;;;;;;;6.00;6.00;;;;;;;;5036976;27;45268;-79
2021/07/25 06:11:01;;;;;;;;;6.00;4.67;;;;;;;;5033618;27;45394;-79
2021/07/25 06:13:26;;;;;;;;;7.50;5.75;;;;;;;;5035626;27;45626;-79
2021/07/25 06:15:52;;;;;;;;;8.00;6.00;;;;;;;;5089468;27;45368;-79
2021/07/25 06:18:17;;;;;;;;;7.00;7.00;;;;;;;;5030002;27;45583;-80
2021/07/25 06:20:42;;;;;;;;;10.25;7.00;;;;;;;;5037171;28;45293;-80
2021/07/25 06:23:09;;;;;;;;;9.67;6.67;;;;;;;;5032655;27;46641;-81
2021/07/25 06:25:35;;;;;;;;;7.50;7.50;;;;;;;;5032780;27;45392;-80
2021/07/25 06:28:01;;;;;;;;;9.25;6.25;;;;;;;;5033726;28;45477;-80
2021/07/25 06:30:26;;;;;;;;;6.00;6.00;;;;;;;;5031232;27;48307;-81
2021/07/25 06:32:52;;;;;;;;;8.50;7.75;;;;;;;;5033106;27;46035;-80
2021/07/25 06:35:17;;;;;;;;;9.25;7.25;;;;;;;;5034077;27;45875;-80
2021/07/25 06:37:42;;;;;;;;;6.50;5.25;;;;;;;;5033546;27;45528;-80
2021/07/25 06:40:08;;;;;;;;;10.75;6.00;;;;;;;;5035066;28;45361;-80
2021/07/25 06:42:33;;;;;;;;;9.00;7.00;;;;;;;;5030188;27;45492;-80
2021/07/25 06:44:58;;;;;;;;;9.33;7.00;;;;;;;;5020197;27;45375;-80
2021/07/25 06:47:24;;;;;;;;;9.67;8.33;;;;;;;;5034447;27;45506;-80
2021/07/25 06:49:49;;;;;;;;;9.33;7.00;;;;;;;;5027641;27;45422;-80
2021/07/25 06:52:14;;;;;;;;;11.67;8.67;;;;;;;;5032982;28;45549;-80
2021/07/25 06:54:39;;;;;;;;;6.33;6.33;;;;;;;;5014862;27;46357;-80
2021/07/25 06:57:04;;;;;;;;;10.33;8.00;;;;;;;;5031642;27;45440;-80
2021/07/25 06:59:30;;;;;;;;;9.00;9.00;;;;;;;;5035386;27;45575;-80
2021/07/25 07:01:55;;;;;;;;;8.00;6.50;;;;;;;;5018018;27;47467;-80
2021/07/25 07:04:20;;;;;;;;;7.00;7.00;;;;;;;;5034627;28;45681;-80
2021/07/25 07:06:46;;;;;;;;;10.75;8.00;;;;;;;;5032640;27;45358;-80
2021/07/25 07:09:11;;;;;;;;;6.67;5.33;;;;;;;;5029592;27;45423;-80
2021/07/25 07:11:36;;;;;;;;;11.33;9.00;;;;;;;;5036078;27;46048;-80
2021/07/25 07:14:02;;;;;;;;;13.00;7.67;;;;;;;;5030413;27;45259;-80
2021/07/25 07:16:27;;;;;;;;;10.75;8.25;;;;;;;;5032912;27;45482;-79
2021/07/25 07:18:52;;;;;;;;;6.67;6.33;;;;;;;;5033291;28;45589;-80
2021/07/25 07:21:18;;;;;;;;;10.00;7.67;;;;;;;;5028542;27;46358;-80
2021/07/25 07:23:43;;;;;;;;;7.25;7.00;;;;;;;;5027135;27;45362;-79
2021/07/25 07:26:08;;;;;;;;;6.67;6.67;;;;;;;;5032399;27;45324;-79
2021/07/25 07:28:33;;;;;;;;;8.00;7.50;;;;;;;;5027874;27;45471;-80
2021/07/25 07:30:59;;;;;;;;;8.00;8.00;;;;;;;;5030117;27;45408;-80
2021/07/25 07:33:24;;;;;;;;;10.33;8.00;;;;;;;;5029337;27;45496;-80
2021/07/25 07:35:52;;;;;;;;;11.50;9.00;;;;;;;;5032281;27;45486;-80
2021/07/25 07:38:19;;;;;;;;;8.50;8.25;;;;;;;;5012655;27;45729;-80
2021/07/25 07:40:44;;;;;;;;;9.50;8.50;;;;;;;;5063713;27;46111;-80
2021/07/25 07:43:10;;;;;;;;;10.25;8.25;;;;;;;;5034134;28;45609;-80
2021/07/25 07:45:36;;;;;;;;;13.25;10.25;;;;;;;;5034272;27;45354;-80
2021/07/25 07:48:03;;;;;;;;;8.50;7.50;;;;;;;;5032155;27;45290;-80
2021/07/25 07:50:28;;;;;;;;;14.25;8.00;;;;;;;;5034668;27;47436;-80
2021/07/25 07:52:53;;;;;;;;;9.25;8.00;;;;;;;;5027584;27;45856;-80
2021/07/25 07:55:18;;;;;;;;;11.00;7.33;;;;;;;;5025786;28;45583;-80
2021/07/25 07:57:44;;;;;;;;;9.67;7.67;;;;;;;;5029003;27;45501;-80
2021/07/25 08:00:10;;;;;;;;;10.00;8.00;;;;;;;;5029205;27;46234;-85
2021/07/25 08:02:35;;;;;;;;;8.50;6.25;;;;;;;;5032968;27;45542;-84
2021/07/25 08:05:01;;;;;;;;;9.25;8.00;;;;;;;;5031448;27;45436;-87
2021/07/25 08:07:27;;;;;;;;;11.25;8.25;;;;;;;;5032126;27;45755;-84
2021/07/25 08:09:52;;;;;;;;;10.00;9.00;;;;;;;;5032528;28;46015;-84
2021/07/25 08:12:17;;;;;;;;;8.33;7.67;;;;;;;;5028397;27;45457;-86
2021/07/25 08:14:43;;;;;;;;;11.00;8.00;;;;;;;;5034689;27;45488;-83
2021/07/25 08:17:08;;;;;;;;;8.00;8.00;;;;;;;;5032951;27;45500;-84
2021/07/25 08:19:33;;;;;;;;;13.67;8.00;;;;;;;;5031265;27;46188;-85
2021/07/25 08:21:58;;;;;;;;;7.75;7.25;;;;;;;;5022454;27;45615;-85
2021/07/25 08:24:24;;;;;;;;;14.00;8.33;;;;;;;;5039887;28;45648;-84
2021/07/25 08:26:49;;;;;;;;;9.33;6.33;;;;;;;;5034295;27;45730;-85
2021/07/25 08:29:14;;;;;;;;;8.67;8.67;;;;;;;;5032548;27;45931;-83
2021/07/25 08:31:39;;;;;;;;;14.67;8.33;;;;;;;;5031980;27;45461;-85
2021/07/25 08:34:05;;;;;;;;;8.00;7.25;;;;;;;;5015012;27;45526;-85
2021/07/25 08:36:30;;;;;;;;;11.50;10.75;;;;;;;;5031880;27;45496;-85
2021/07/25 08:38:55;;;;;;;;;7.67;7.67;;;;;;;;5014072;27;46945;-85
2021/07/25 08:41:54;;;;;;;;;10.00;7.00;;;;;;;;5037686;27;45583;-85
2021/07/25 08:44:38;;;;;;;;;9.00;8.50;;;;;;;;5036931;27;45539;-84
2021/07/25 08:47:08;;;;;;;;;10.00;8.75;;;;;;;;5018037;27;45379;-90
2021/07/25 08:49:41;;;;;;;;;11.25;9.00;;;;;;;;5020803;27;47700;-86
2021/07/25 08:52:13;;;;;;;;;9.25;8.25;;;;;;;;5025746;28;45967;-85
2021/07/25 08:54:39;;;;;;;;;10.50;9.00;;;;;;;;5033492;27;45469;-84
2021/07/25 08:57:05;;;;;;;;;7.75;7.50;;;;;;;;5005131;28;45360;-81
2021/07/25 08:59:33;;;;;;;;;8.75;7.25;;;;;;;;5030995;27;45597;-82
2021/07/25 09:01:59;;;;;;;;;8.25;8.25;;;;;;;;5027335;27;45546;-81
2021/07/25 09:04:25;;;;;;;;;10.50;8.25;;;;;;;;5026136;27;45457;-79
2021/07/25 09:06:50;;;;;;;;;10.00;7.00;;;;;;;;5028272;27;45380;-84
2021/07/25 09:09:17;;;;;;;;;11.25;7.25;;;;;;;;5008085;28;45439;-81
2021/07/25 09:11:43;;;;;;;;;8.50;7.00;;;;;;;;5016849;27;45848;-80
2021/07/25 09:14:08;;;;;;;;;9.00;6.00;;;;;;;;5019680;27;45546;-80
2021/07/25 09:16:34;;;;;;;;;8.33;6.00;;;;;;;;5023346;27;45317;-81
2021/07/25 09:19:00;;;;;;;;;5.25;5.00;;;;;;;;5023635;28;45618;-80
2021/07/25 09:21:35;;;;;;;;;7.25;5.25;;;;;;;;5028057;27;45471;-80
2021/07/25 09:24:18;;;;;;;;;4.75;4.50;;;;;;;;5030086;27;45669;-78
2021/07/25 09:26:50;;;;;;;;;7.00;6.00;;;;;;;;5034686;27;45278;-80
2021/07/25 09:29:19;;;;;;;;;5.50;4.50;;;;;;;;5010823;27;46193;-80
2021/07/25 09:31:44;;;;;;;;;5.75;4.00;;;;;;;;5017552;27;46395;-80
2021/07/25 09:34:09;;;;;;;;;5.75;4.50;;;;;;;;5011873;28;45479;-79
2021/07/25 09:36:37;;;;;;;;;5.33;5.00;;;;;;;;5020105;27;45624;-80
2021/07/25 09:39:04;;;;;;;;;5.50;5.25;;;;;;;;5031927;27;46030;-80
2021/07/25 09:41:30;;;;;;;;;6.00;6.00;;;;;;;;5017532;27;45975;-80
2021/07/25 09:43:58;;;;;;;;;4.75;4.75;;;;;;;;5034050;27;45420;-80
2021/07/25 09:46:23;;;;;;;;;7.00;5.25;;;;;;;;5034426;28;45459;-80
2021/07/25 09:48:54;;;;;;;;;6.25;5.00;;;;;;;;5026782;27;46527;-80
2021/07/25 09:51:21;;;;;;;;;9.00;5.75;;;;;;;;5073962;27;45462;-80
2021/07/25 09:53:47;;;;;;;;;6.25;5.25;;;;;;;;5017866;28;45534;-80
2021/07/25 09:56:13;;;;;;;;;7.00;5.75;;;;;;;;5040217;28;45607;-80
2021/07/25 09:58:38;;;;;;;;;8.50;6.00;;;;;;;;5015263;27;48492;-80
2021/07/25 10:01:04;;;;;;;;;6.50;6.00;;;;;;;;5014086;28;45411;-81
2021/07/25 10:03:35;;;;;;;;;10.67;6.67;;;;;;;;5001885;27;45720;-81
2021/07/25 10:06:21;;;;;;;;;5.50;5.50;;;;;;;;5011523;27;45418;-80
2021/07/25 10:08:46;;;;;;;;;9.00;7.00;;;;;;;;5029206;27;45333;-81
2021/07/25 10:11:19;;;;;;;;;6.00;6.00;;;;;;;;5029438;27;45492;-81
2021/07/25 10:13:46;;;;;;;;;7.00;6.50;;;;;;;;5014627;27;45587;-81
2021/07/25 10:16:11;;;;;;;;;8.25;7.25;;;;;;;;5042324;28;45547;-80
2021/07/25 10:18:37;;;;;;;;;6.75;6.00;;;;;;;;5017353;28;46366;-80
2021/07/25 10:21:02;;;;;;;;;8.25;5.75;;;;;;;;5019540;27;45510;-80
2021/07/25 10:23:32;;;;;;;;;8.25;8.25;;;;;;;;5018434;28;45551;-81
2021/07/25 10:26:00;;;;;;;;;10.75;9.00;;;;;;;;5021885;27;45529;-81
2021/07/25 10:28:26;;;;;;;;;9.25;6.75;;;;;;;;5025643;28;46189;-81
2021/07/25 10:30:52;;;;;;;;;10.00;7.00;;;;;;;;5017323;28;45897;-80
2021/07/25 10:33:17;;;;;;;;;10.00;7.50;;;;;;;;4998926;27;45357;-80
2021/07/25 10:35:43;;;;;;;;;6.50;6.50;;;;;;;;5015473;27;45322;-81
2021/07/25 10:38:08;;;;;;;;;9.50;8.00;;;;;;;;5018862;27;45587;-81
2021/07/25 10:40:35;;;;;;;;;9.33;9.00;;;;;;;;5017144;27;45469;-80
2021/07/25 10:43:01;;;;;;;;;9.75;8.00;;;;;;;;5013767;28;45638;-80
2021/07/25 10:45:26;;;;;;;;;7.00;6.00;;;;;;;;5015066;27;45623;-81
2021/07/25 10:47:52;;;;;;;;;9.00;7.33;;;;;;;;4995181;27;48621;-80
2021/07/25 10:50:21;;;;;;;;;6.00;6.00;;;;;;;;5000510;27;45531;-81
2021/07/25 10:52:54;;;;;;;;;8.50;7.50;;;;;;;;5017382;27;45543;-81
2021/07/25 10:55:35;;;;;;;;;8.50;7.50;;;;;;;;5015561;28;45579;-80
2021/07/25 10:58:15;;;;;;;;;8.75;8.50;;;;;;;;4999062;27;48078;-80
2021/07/25 11:00:44;;;;;;;;;10.50;6.75;;;;;;;;5020654;27;45785;-81
2021/07/25 11:03:29;;;;;;;;;11.25;9.25;;;;;;;;5027664;27;45325;-81
2021/07/25 11:06:13;;;;;;;;;8.50;6.50;;;;;;;;5030384;27;45428;-80
2021/07/25 11:08:41;;;;;;;;;7.75;7.75;;;;;;;;5033611;27;45710;-79
2021/07/25 11:11:25;;;;;;;;;12.00;9.00;;;;;;;;5047083;27;45764;-80
2021/07/25 11:13:50;;;;;;;;;9.00;8.75;;;;;;;;5048898;27;45337;-81
2021/07/25 11:16:29;;;;;;;;;12.50;8.50;;;;;;;;5030221;28;45600;-81
2021/07/25 11:18:54;;;;;;;;;11.00;8.50;;;;;;;;5022381;28;46314;-81
2021/07/25 11:21:33;;;;;;;;;9.50;8.00;;;;;;;;5029126;27;45487;-81
2021/07/25 11:23:58;;;;;;;;;11.50;8.50;;;;;;;;5014899;28;45380;-81
2021/07/25 11:26:34;;;;;;;;;12.67;8.67;;;;;;;;5015454;27;45538;-81
2021/07/25 11:29:01;;;;;;;;;9.50;9.00;;;;;;;;5034288;27;46021;-81
2021/07/25 11:31:37;;;;;;;;;12.00;8.00;;;;;;;;5033118;28;45515;-81
2021/07/25 11:34:02;;;;;;;;;14.75;10.00;;;;;;;;5023082;27;45387;-81
2021/07/25 11:36:28;;;;;;;;;12.25;11.00;;;;;;;;5020774;27;45503;-81
2021/07/25 11:38:55;;;;;;;;;11.25;8.25;;;;;;;;5013670;27;47694;-81
2021/07/25 11:41:22;;;;;;;;;7.50;7.50;;;;;;;;5031205;27;45801;-81
2021/07/25 11:43:47;;;;;;;;;13.75;9.00;;;;;;;;5026420;27;45544;-81
2021/07/25 11:46:31;;;;;;;;;9.00;8.67;;;;;;;;5026235;27;45495;-81
2021/07/25 11:49:15;;;;;;;;;7.00;7.00;;;;;;;;5014495;27;48720;-80
2021/07/25 11:51:50;;;;;;;;;5.50;5.50;;;;;;;;5012882;27;45645;-81
2021/07/25 11:54:36;;;;;;;;;6.25;6.25;;;;;;;;5012731;27;45555;-80
2021/07/25 11:57:01;;;;;;;;;8.75;6.00;;;;;;;;5013686;27;45613;-81
2021/07/25 11:59:27;;;;;;;;;12.00;10.33;;;;;;;;5020612;27;45912;-81
2021/07/25 12:01:52;;;;;;;;;8.50;8.00;;;;;;;;5021326;27;45302;-80
2021/07/25 12:04:17;;;;;;;;;12.00;10.00;;;;;;;;5023180;28;45520;-81
2021/07/25 12:06:43;;;;;;;;;8.50;7.25;;;;;;;;5017206;27;45598;-81
2021/07/25 12:09:10;;;;;;;;;12.00;10.00;;;;;;;;5008471;27;45969;-82
2021/07/25 12:11:36;;;;;;;;;9.00;8.25;;;;;;;;5031388;27;45489;-81
2021/07/25 12:14:02;;;;;;;;;11.25;8.25;;;;;;;;5032456;27;45448;-82
2021/07/25 12:16:47;;;;;;;;;8.25;6.75;;;;;;;;5027902;27;47260;-81
2021/07/25 12:19:13;;;;;;;;;6.75;6.50;;;;;;;;5029591;28;45443;-82
2021/07/25 12:21:38;;;;;;;;;9.75;7.75;;;;;;;;5028643;27;45641;-82
2021/07/25 12:24:04;;;;;;;;;6.67;6.67;;;;;;;;5030051;28;45873;-82
2021/07/25 12:26:41;;;;;;;;;9.00;7.25;;;;;;;;5033748;27;45505;-80
2021/07/25 12:29:25;;;;;;;;;5.25;3.25;;;;;;;;5032441;27;45528;-82
2021/07/25 12:31:51;;;;;;;;;7.00;7.00;;;;;;;;5031993;27;45713;-82
2021/07/25 12:34:25;;;;;;;;;6.25;5.50;;;;;;;;5031326;28;45458;-82
2021/07/25 12:36:50;;;;;;;;;9.00;7.00;;;;;;;;5042476;28;45609;-82
2021/07/25 12:39:19;;;;;;;;;7.00;5.00;;;;;;;;5026756;27;45507;-82
2021/07/25 12:41:44;;;;;;;;;6.00;6.00;;;;;;;;5002818;27;45559;-82
2021/07/25 12:44:09;;;;;;;;;7.00;5.33;;;;;;;;5031398;27;45549;-82
2021/07/25 12:46:34;;;;;;;;;6.00;6.00;;;;;;;;5033680;27;45444;-82
2021/07/25 12:49:06;;;;;;;;;8.67;6.33;;;;;;;;5015905;28;46585;-81
2021/07/25 12:51:43;;;;;;;;;5.50;5.00;;;;;;;;5029062;27;45480;-81
2021/07/25 12:54:09;;;;;;;;;5.50;5.50;;;;;;;;5030846;27;45423;-81
2021/07/25 12:56:34;;;;;;;;;3.75;3.75;;;;;;;;5036473;27;45407;-81
2021/07/25 12:59:01;;;;;;;;;7.50;6.50;;;;;;;;5028614;27;45561;-81
2021/07/25 13:03:59;;;;;;;;;7.00;4.50;;;;;;;;5027788;27;45540;-80
2021/07/25 13:06:26;;;;;;;;;4.50;4.25;;;;;;;;5026360;27;45294;-80
2021/07/25 13:08:52;;;;;;;;;3.00;3.00;;;;;;;;5035244;27;46183;-80
2021/07/25 13:11:18;;;;;;;;;4.00;4.00;;;;;;;;5036789;27;45461;-81
2021/07/25 13:13:45;;;;;;;;;5.25;4.25;;;;;;;;5034625;27;45527;-79
2021/07/25 13:16:11;;;;;;;;;6.50;5.00;;;;;;;;5033764;28;45280;-80
2021/07/25 13:18:40;;;;;;;;;4.50;4.00;;;;;;;;5031733;27;46523;-80
2021/07/25 13:21:05;;;;;;;;;3.25;2.50;;;;;;;;5031564;27;45515;-79
2021/07/25 13:23:30;;;;;;;;;4.00;3.00;;;;;;;;5032139;27;45513;-80
2021/07/25 13:25:55;;;;;;;;;4.00;3.00;;;;;;;;5017173;27;45680;-80
2021/07/25 13:28:21;;;;;;;;;2.33;2.33;;;;;;;;5027438;28;46642;-80
2021/07/25 13:30:46;;;;;;;;;3.00;2.00;;;;;;;;5024195;27;45456;-81
2021/07/25 13:33:11;;;;;;;;;3.00;3.00;;;;;;;;5016940;27;45427;-80
2021/07/25 13:35:36;;;;;;;;;3.00;2.00;;;;;;;;5037001;27;45516;-81
2021/07/25 13:38:02;;;;;;;;;2.75;2.75;;;;;;;;5017279;28;45544;-81
2021/07/25 13:40:27;;;;;;;;;3.75;3.00;;;;;;;;5033550;27;45483;-81
2021/07/25 13:42:52;;;;;;;;;3.00;3.00;;;;;;;;5034636;28;45268;-81
2021/07/25 13:45:18;;;;;;;;;3.00;3.00;;;;;;;;5036791;28;45476;-79
2021/07/25 13:47:43;;;;;;;;;3.50;3.50;;;;;;;;5019210;27;46464;-81
2021/07/25 13:50:10;;;;;;;;;1.50;1.50;;;;;;;;5033996;27;45360;-80
2021/07/25 13:52:35;;;;;;;;;2.50;1.50;;;;;;;;5030361;27;45409;-81
2021/07/25 13:55:01;;;;;;;;;3.00;1.25;;;;;;;;5038598;28;45463;-80
2021/07/25 13:57:26;;;;;;;;;2.00;2.00;;;;;;;;5034659;27;45365;-81
2021/07/25 13:59:51;;;;;;;;;5.00;2.00;;;;;;;;5034700;27;45425;-81
2021/07/25 14:02:17;;;;;;;;;3.00;1.67;;;;;;;;5034959;27;45338;-81
2021/07/25 14:04:42;;;;;;;;;4.33;1.33;;;;;;;;5028476;27;45320;-80
2021/07/25 14:07:07;;;;;;;;;2.67;1.67;;;;;;;;5019018;28;48205;-81
2021/07/25 14:09:32;;;;;;;;;2.33;2.33;;;;;;;;5016079;27;45563;-81
2021/07/25 14:11:58;;;;;;;;;3.00;2.00;;;;;;;;5034019;27;45277;-81
2021/07/25 14:14:24;;;;;;;;;2.00;2.00;;;;;;;;5029988;27;45597;-81
2021/07/25 14:16:50;;;;;;;;;1.75;1.75;;;;;;;;5029963;27;46009;-81
2021/07/25 14:19:16;;;;;;;;;2.50;2.50;;;;;;;;5025979;28;45659;-81
2021/07/25 14:21:42;;;;;;;;;2.00;2.00;;;;;;;;5087742;27;45586;-81
2021/07/25 14:24:07;;;;;;;;;1.25;1.25;;;;;;;;5031463;28;45527;-80
2021/07/25 14:26:32;;;;;;;;;2.00;2.00;;;;;;;;5036782;27;45763;-81
2021/07/25 14:28:57;;;;;;;;;2.00;1.00;;;;;;;;5034033;27;45774;-80
2021/07/25 14:31:23;;;;;;;;;1.75;1.75;;;;;;;;5033790;28;45441;-80
2021/07/25 14:33:48;;;;;;;;;1.25;1.25;;;;;;;;5033634;27;45497;-80
2021/07/25 14:36:16;;;;;;;;;1.50;1.50;;;;;;;;5022248;27;45502;-79
2021/07/25 14:38:46;;;;;;;;;2.00;2.00;;;;;;;;5036425;27;45485;-80
2021/07/25 14:41:12;;;;;;;;;2.00;1.50;;;;;;;;5027712;27;45405;-80
2021/07/25 14:43:37;;;;;;;;;2.75;2.75;;;;;;;;5029489;28;45565;-80